sensor_id;sensor_type;location;lat;lon;timestamp;P1;durP1;ratioP1;P2;durP2;ratioP2
48789;SDS011;41718;51.980;5.734;2023-07-29T00:03:59;2.95;;;2.40;;
48789;SDS011;41718;51.980;5.734;2023-07-29T00:09:01;3.63;;;2.35;;
48789;SDS011;41718;51.980;5.734;2023-07-29T00:14:03;3.17;;;2.88;;
48789;SDS011;41718;51.980;5.734;2023-07-29T00:19:05;3.10;;;2.60;;
48789;SDS011;41718;51.980;5.734;2023-07-29T00:24:09;4.88;;;3.75;;
48789;SDS011;41718;51.980;5.734;2023-07-29T00:29:11;4.30;;;3.22;;
48789;SDS011;41718;51.980;5.734;2023-07-29T00:34:15;3.90;;;2.33;;
48789;SDS011;41718;51.980;5.734;2023-07-29T00:39:20;2.20;;;2.00;;
48789;SDS011;41718;51.980;5.734;2023-07-29T00:44:22;2.22;;;1.80;;
48789;SDS011;41718;51.980;5.734;2023-07-29T00:49:26;2.80;;;2.25;;
48789;SDS011;41718;51.980;5.734;2023-07-29T00:54:28;3.75;;;2.70;;
48789;SDS011;41718;51.980;5.734;2023-07-29T00:59:30;4.15;;;3.25;;
48789;SDS011;41718;51.980;5.734;2023-07-29T01:04:33;2.75;;;2.03;;
48789;SDS011;41718;51.980;5.734;2023-07-29T01:09:50;4.72;;;2.42;;
48789;SDS011;41718;51.980;5.734;2023-07-29T01:14:59;2.75;;;2.38;;
48789;SDS011;41718;51.980;5.734;2023-07-29T01:20:16;3.95;;;3.03;;
48789;SDS011;41718;51.980;5.734;2023-07-29T01:25:21;2.93;;;2.60;;
48789;SDS011;41718;51.980;5.734;2023-07-29T01:30:26;4.53;;;3.05;;
48789;SDS011;41718;51.980;5.734;2023-07-29T01:40:35;7.30;;;5.03;;
48789;SDS011;41718;51.980;5.734;2023-07-29T01:45:38;6.82;;;4.93;;
48789;SDS011;41718;51.980;5.734;2023-07-29T01:50:40;5.68;;;3.45;;
48789;SDS011;41718;51.980;5.734;2023-07-29T01:55:42;5.88;;;2.85;;
48789;SDS011;41718;51.980;5.734;2023-07-29T02:00:44;5.30;;;3.38;;
48789;SDS011;41718;51.980;5.734;2023-07-29T02:05:47;6.32;;;5.15;;
48789;SDS011;41718;51.980;5.734;2023-07-29T02:10:48;9.15;;;6.53;;
48789;SDS011;41718;51.980;5.734;2023-07-29T02:15:52;11.68;;;8.18;;
48789;SDS011;41718;51.980;5.734;2023-07-29T02:20:54;13.15;;;9.38;;
48789;SDS011;41718;51.980;5.734;2023-07-29T02:25:55;15.07;;;9.75;;
48789;SDS011;41718;51.980;5.734;2023-07-29T02:36:15;13.15;;;10.30;;
48789;SDS011;41718;51.980;5.734;2023-07-29T02:41:18;17.00;;;11.85;;
48789;SDS011;41718;51.980;5.734;2023-07-29T02:46:19;16.58;;;10.52;;
48789;SDS011;41718;51.980;5.734;2023-07-29T02:51:21;13.73;;;10.20;;
48789;SDS011;41718;51.980;5.734;2023-07-29T02:56:23;12.38;;;9.20;;
48789;SDS011;41718;51.980;5.734;2023-07-29T03:01:25;14.52;;;9.93;;
48789;SDS011;41718;51.980;5.734;2023-07-29T03:06:26;12.77;;;9.60;;
48789;SDS011;41718;51.980;5.734;2023-07-29T03:11:28;12.80;;;9.25;;
48789;SDS011;41718;51.980;5.734;2023-07-29T03:16:29;12.60;;;8.68;;
48789;SDS011;41718;51.980;5.734;2023-07-29T03:21:33;10.48;;;9.05;;
48789;SDS011;41718;51.980;5.734;2023-07-29T03:26:39;12.47;;;8.13;;
48789;SDS011;41718;51.980;5.734;2023-07-29T03:31:43;12.57;;;7.97;;
48789;SDS011;41718;51.980;5.734;2023-07-29T03:36:45;10.57;;;6.82;;
48789;SDS011;41718;51.980;5.734;2023-07-29T03:41:48;9.75;;;7.60;;
48789;SDS011;41718;51.980;5.734;2023-07-29T03:46:53;11.05;;;7.65;;
48789;SDS011;41718;51.980;5.734;2023-07-29T03:51:54;10.38;;;6.13;;
48789;SDS011;41718;51.980;5.734;2023-07-29T03:56:56;7.70;;;5.13;;
48789;SDS011;41718;51.980;5.734;2023-07-29T04:01:57;7.90;;;5.70;;
48789;SDS011;41718;51.980;5.734;2023-07-29T04:06:59;7.45;;;4.57;;
48789;SDS011;41718;51.980;5.734;2023-07-29T04:12:01;6.18;;;4.22;;
48789;SDS011;41718;51.980;5.734;2023-07-29T04:17:03;6.15;;;3.85;;
48789;SDS011;41718;51.980;5.734;2023-07-29T04:22:05;4.05;;;2.88;;
48789;SDS011;41718;51.980;5.734;2023-07-29T04:27:10;8.45;;;4.05;;
48789;SDS011;41718;51.980;5.734;2023-07-29T04:32:11;4.45;;;3.55;;
48789;SDS011;41718;51.980;5.734;2023-07-29T04:37:13;5.50;;;3.38;;
48789;SDS011;41718;51.980;5.734;2023-07-29T04:42:14;4.65;;;3.05;;
48789;SDS011;41718;51.980;5.734;2023-07-29T04:47:16;3.83;;;3.13;;
48789;SDS011;41718;51.980;5.734;2023-07-29T04:52:18;6.03;;;3.92;;
48789;SDS011;41718;51.980;5.734;2023-07-29T04:57:20;5.78;;;3.50;;
48789;SDS011;41718;51.980;5.734;2023-07-29T05:02:25;6.10;;;3.03;;
48789;SDS011;41718;51.980;5.734;2023-07-29T05:07:26;6.60;;;3.22;;
48789;SDS011;41718;51.980;5.734;2023-07-29T05:12:28;5.57;;;3.10;;
48789;SDS011;41718;51.980;5.734;2023-07-29T05:17:30;2.85;;;2.60;;
48789;SDS011;41718;51.980;5.734;2023-07-29T05:22:32;4.78;;;3.03;;
48789;SDS011;41718;51.980;5.734;2023-07-29T05:27:33;4.78;;;3.10;;
48789;SDS011;41718;51.980;5.734;2023-07-29T05:32:35;4.40;;;3.25;;
48789;SDS011;41718;51.980;5.734;2023-07-29T05:37:40;3.72;;;2.22;;
48789;SDS011;41718;51.980;5.734;2023-07-29T05:42:42;5.35;;;3.05;;
48789;SDS011;41718;51.980;5.734;2023-07-29T05:47:43;5.80;;;3.00;;
48789;SDS011;41718;51.980;5.734;2023-07-29T05:52:45;6.28;;;3.40;;
48789;SDS011;41718;51.980;5.734;2023-07-29T05:57:46;6.80;;;3.97;;
48789;SDS011;41718;51.980;5.734;2023-07-29T06:02:48;5.78;;;3.53;;
48789;SDS011;41718;51.980;5.734;2023-07-29T06:07:50;5.10;;;3.40;;
48789;SDS011;41718;51.980;5.734;2023-07-29T06:12:51;8.50;;;3.90;;
48789;SDS011;41718;51.980;5.734;2023-07-29T06:17:54;6.43;;;4.43;;
48789;SDS011;41718;51.980;5.734;2023-07-29T06:22:57;7.35;;;4.57;;
48789;SDS011;41718;51.980;5.734;2023-07-29T06:27:59;6.97;;;4.10;;
48789;SDS011;41718;51.980;5.734;2023-07-29T06:33:01;4.95;;;3.72;;
48789;SDS011;41718;51.980;5.734;2023-07-29T06:38:04;6.55;;;4.05;;
48789;SDS011;41718;51.980;5.734;2023-07-29T06:43:06;7.13;;;4.15;;
48789;SDS011;41718;51.980;5.734;2023-07-29T06:48:07;4.57;;;3.42;;
48789;SDS011;41718;51.980;5.734;2023-07-29T06:53:11;5.22;;;3.72;;
48789;SDS011;41718;51.980;5.734;2023-07-29T06:58:16;7.97;;;4.22;;
48789;SDS011;41718;51.980;5.734;2023-07-29T07:03:17;9.40;;;4.37;;
48789;SDS011;41718;51.980;5.734;2023-07-29T07:08:21;5.80;;;4.45;;
48789;SDS011;41718;51.980;5.734;2023-07-29T07:13:23;7.85;;;4.38;;
48789;SDS011;41718;51.980;5.734;2023-07-29T07:18:24;5.75;;;4.30;;
48789;SDS011;41718;51.980;5.734;2023-07-29T07:23:26;7.55;;;4.43;;
48789;SDS011;41718;51.980;5.734;2023-07-29T07:28:31;6.88;;;4.75;;
48789;SDS011;41718;51.980;5.734;2023-07-29T07:33:36;4.57;;;4.05;;
48789;SDS011;41718;51.980;5.734;2023-07-29T07:38:41;5.15;;;3.92;;
48789;SDS011;41718;51.980;5.734;2023-07-29T07:43:59;4.60;;;4.18;;
48789;SDS011;41718;51.980;5.734;2023-07-29T07:49:07;4.85;;;4.18;;
48789;SDS011;41718;51.980;5.734;2023-07-29T07:54:09;9.13;;;5.20;;
48789;SDS011;41718;51.980;5.734;2023-07-29T07:59:21;8.15;;;5.00;;
48789;SDS011;41718;51.980;5.734;2023-07-29T08:04:23;4.30;;;3.67;;
48789;SDS011;41718;51.980;5.734;2023-07-29T08:09:30;4.18;;;3.80;;
48789;SDS011;41718;51.980;5.734;2023-07-29T08:14:39;5.80;;;4.55;;
48789;SDS011;41718;51.980;5.734;2023-07-29T08:19:44;4.75;;;3.33;;
48789;SDS011;41718;51.980;5.734;2023-07-29T08:24:47;4.47;;;3.28;;
48789;SDS011;41718;51.980;5.734;2023-07-29T08:29:51;4.00;;;3.58;;
48789;SDS011;41718;51.980;5.734;2023-07-29T08:34:55;2.67;;;2.47;;
48789;SDS011;41718;51.980;5.734;2023-07-29T08:40:02;4.85;;;2.58;;
48789;SDS011;41718;51.980;5.734;2023-07-29T08:45:07;6.57;;;2.63;;
48789;SDS011;41718;51.980;5.734;2023-07-29T08:50:12;3.15;;;2.33;;
48789;SDS011;41718;51.980;5.734;2023-07-29T08:55:18;4.20;;;2.50;;
48789;SDS011;41718;51.980;5.734;2023-07-29T09:00:20;3.00;;;2.70;;
48789;SDS011;41718;51.980;5.734;2023-07-29T09:05:23;2.83;;;2.30;;
48789;SDS011;41718;51.980;5.734;2023-07-29T09:10:25;3.25;;;2.92;;
48789;SDS011;41718;51.980;5.734;2023-07-29T09:15:31;4.10;;;2.90;;
48789;SDS011;41718;51.980;5.734;2023-07-29T09:20:34;5.25;;;2.83;;
48789;SDS011;41718;51.980;5.734;2023-07-29T09:25:36;4.47;;;3.05;;
48789;SDS011;41718;51.980;5.734;2023-07-29T09:35:47;4.85;;;2.40;;
48789;SDS011;41718;51.980;5.734;2023-07-29T09:40:49;2.95;;;1.90;;
48789;SDS011;41718;51.980;5.734;2023-07-29T09:45:53;3.67;;;1.70;;
48789;SDS011;41718;51.980;5.734;2023-07-29T09:50:55;1.75;;;1.65;;
48789;SDS011;41718;51.980;5.734;2023-07-29T09:55:57;2.50;;;1.20;;
48789;SDS011;41718;51.980;5.734;2023-07-29T10:00:59;3.13;;;1.42;;
48789;SDS011;41718;51.980;5.734;2023-07-29T10:06:02;2.42;;;1.40;;
48789;SDS011;41718;51.980;5.734;2023-07-29T10:11:08;1.95;;;1.23;;
48789;SDS011;41718;51.980;5.734;2023-07-29T10:16:11;1.63;;;1.15;;
48789;SDS011;41718;51.980;5.734;2023-07-29T10:21:13;1.42;;;0.88;;
48789;SDS011;41718;51.980;5.734;2023-07-29T10:31:21;6.47;;;2.08;;
48789;SDS011;41718;51.980;5.734;2023-07-29T10:36:24;3.40;;;1.80;;
48789;SDS011;41718;51.980;5.734;2023-07-29T10:46:56;3.58;;;1.50;;
48789;SDS011;41718;51.980;5.734;2023-07-29T10:51:57;2.53;;;1.92;;
48789;SDS011;41718;51.980;5.734;2023-07-29T10:57:00;3.30;;;2.05;;
48789;SDS011;41718;51.980;5.734;2023-07-29T11:02:02;3.65;;;1.75;;
48789;SDS011;41718;51.980;5.734;2023-07-29T11:17:35;3.58;;;1.63;;
48789;SDS011;41718;51.980;5.734;2023-07-29T11:22:38;1.98;;;1.25;;
48789;SDS011;41718;51.980;5.734;2023-07-29T11:27:40;1.42;;;1.27;;
48789;SDS011;41718;51.980;5.734;2023-07-29T11:32:43;2.63;;;1.40;;
48789;SDS011;41718;51.980;5.734;2023-07-29T11:37:47;2.08;;;1.20;;
48789;SDS011;41718;51.980;5.734;2023-07-29T11:42:53;1.27;;;0.90;;
48789;SDS011;41718;51.980;5.734;2023-07-29T11:47:55;1.00;;;0.82;;
48789;SDS011;41718;51.980;5.734;2023-07-29T11:52:57;1.50;;;0.80;;
48789;SDS011;41718;51.980;5.734;2023-07-29T11:58:02;1.00;;;0.90;;
48789;SDS011;41718;51.980;5.734;2023-07-29T12:03:09;1.60;;;0.90;;
48789;SDS011;41718;51.980;5.734;2023-07-29T12:08:34;2.72;;;1.27;;
48789;SDS011;41718;51.980;5.734;2023-07-29T12:13:46;2.88;;;1.50;;
48789;SDS011;41718;51.980;5.734;2023-07-29T12:19:34;2.42;;;1.67;;
48789;SDS011;41718;51.980;5.734;2023-07-29T12:25:43;2.15;;;1.40;;
48789;SDS011;41718;51.980;5.734;2023-07-29T12:31:16;1.30;;;0.80;;
48789;SDS011;41718;51.980;5.734;2023-07-29T12:43:11;0.95;;;0.70;;
48789;SDS011;41718;51.980;5.734;2023-07-29T12:48:44;3.22;;;1.08;;
48789;SDS011;41718;51.980;5.734;2023-07-29T12:54:27;1.20;;;1.00;;
48789;SDS011;41718;51.980;5.734;2023-07-29T12:59:31;2.63;;;1.38;;
48789;SDS011;41718;51.980;5.734;2023-07-29T13:04:32;3.38;;;1.85;;
48789;SDS011;41718;51.980;5.734;2023-07-29T13:09:34;2.47;;;2.28;;
48789;SDS011;41718;51.980;5.734;2023-07-29T13:14:37;2.95;;;2.65;;
48789;SDS011;41718;51.980;5.734;2023-07-29T13:19:38;3.42;;;3.10;;
48789;SDS011;41718;51.980;5.734;2023-07-29T13:24:40;3.97;;;3.13;;
48789;SDS011;41718;51.980;5.734;2023-07-29T13:29:42;3.60;;;3.30;;
48789;SDS011;41718;51.980;5.734;2023-07-29T13:34:45;3.65;;;3.08;;
48789;SDS011;41718;51.980;5.734;2023-07-29T13:39:52;3.40;;;3.10;;
48789;SDS011;41718;51.980;5.734;2023-07-29T13:44:56;3.13;;;2.93;;
48789;SDS011;41718;51.980;5.734;2023-07-29T13:49:59;3.30;;;2.92;;
48789;SDS011;41718;51.980;5.734;2023-07-29T13:55:01;3.30;;;3.00;;
48789;SDS011;41718;51.980;5.734;2023-07-29T14:00:07;3.63;;;3.20;;
48789;SDS011;41718;51.980;5.734;2023-07-29T14:05:11;3.55;;;2.47;;
48789;SDS011;41718;51.980;5.734;2023-07-29T14:10:17;2.38;;;2.08;;
48789;SDS011;41718;51.980;5.734;2023-07-29T14:15:21;3.05;;;2.10;;
48789;SDS011;41718;51.980;5.734;2023-07-29T14:20:33;2.65;;;2.45;;
48789;SDS011;41718;51.980;5.734;2023-07-29T14:25:35;3.22;;;2.17;;
48789;SDS011;41718;51.980;5.734;2023-07-29T14:30:41;1.90;;;1.75;;
48789;SDS011;41718;51.980;5.734;2023-07-29T14:35:43;2.15;;;1.42;;
48789;SDS011;41718;51.980;5.734;2023-07-29T14:40:47;1.83;;;1.73;;
48789;SDS011;41718;51.980;5.734;2023-07-29T14:45:49;2.28;;;1.95;;
48789;SDS011;41718;51.980;5.734;2023-07-29T14:50:54;3.40;;;2.20;;
48789;SDS011;41718;51.980;5.734;2023-07-29T14:55:56;2.05;;;1.85;;
48789;SDS011;41718;51.980;5.734;2023-07-29T15:00:59;2.88;;;1.90;;
48789;SDS011;41718;51.980;5.734;2023-07-29T15:06:01;2.17;;;1.98;;
48789;SDS011;41718;51.980;5.734;2023-07-29T15:11:04;3.25;;;2.65;;
48789;SDS011;41718;51.980;5.734;2023-07-29T15:16:08;2.75;;;2.15;;
48789;SDS011;41718;51.980;5.734;2023-07-29T15:21:12;2.28;;;1.95;;
48789;SDS011;41718;51.980;5.734;2023-07-29T15:26:13;4.55;;;2.00;;
48789;SDS011;41718;51.980;5.734;2023-07-29T15:31:17;3.50;;;1.25;;
48789;SDS011;41718;51.980;5.734;2023-07-29T15:36:32;1.55;;;1.45;;
48789;SDS011;41718;51.980;5.734;2023-07-29T15:41:34;2.70;;;1.20;;
48789;SDS011;41718;51.980;5.734;2023-07-29T15:46:43;2.80;;;1.45;;
48789;SDS011;41718;51.980;5.734;2023-07-29T15:51:45;1.67;;;1.58;;
48789;SDS011;41718;51.980;5.734;2023-07-29T15:56:46;1.65;;;1.55;;
48789;SDS011;41718;51.980;5.734;2023-07-29T16:01:48;2.42;;;1.80;;
48789;SDS011;41718;51.980;5.734;2023-07-29T16:06:51;2.10;;;1.90;;
48789;SDS011;41718;51.980;5.734;2023-07-29T16:11:53;3.78;;;1.65;;
48789;SDS011;41718;51.980;5.734;2023-07-29T16:16:57;3.67;;;1.48;;
48789;SDS011;41718;51.980;5.734;2023-07-29T16:21:58;2.05;;;1.63;;
48789;SDS011;41718;51.980;5.734;2023-07-29T16:27:22;2.80;;;1.40;;
48789;SDS011;41718;51.980;5.734;2023-07-29T16:32:55;2.38;;;1.48;;
48789;SDS011;41718;51.980;5.734;2023-07-29T16:37:56;2.97;;;2.78;;
48789;SDS011;41718;51.980;5.734;2023-07-29T16:43:00;13.88;;;3.17;;
48789;SDS011;41718;51.980;5.734;2023-07-29T16:48:02;2.70;;;2.35;;
48789;SDS011;41718;51.980;5.734;2023-07-29T16:53:04;3.20;;;2.42;;
48789;SDS011;41718;51.980;5.734;2023-07-29T16:58:06;3.33;;;3.00;;
48789;SDS011;41718;51.980;5.734;2023-07-29T17:03:09;2.83;;;2.63;;
48789;SDS011;41718;51.980;5.734;2023-07-29T17:08:11;3.17;;;2.70;;
48789;SDS011;41718;51.980;5.734;2023-07-29T17:13:12;3.70;;;3.38;;
48789;SDS011;41718;51.980;5.734;2023-07-29T17:18:16;3.53;;;3.23;;
48789;SDS011;41718;51.980;5.734;2023-07-29T17:23:19;5.20;;;3.63;;
48789;SDS011;41718;51.980;5.734;2023-07-29T17:28:20;3.85;;;3.38;;
48789;SDS011;41718;51.980;5.734;2023-07-29T17:33:22;3.55;;;3.25;;
48789;SDS011;41718;51.980;5.734;2023-07-29T17:38:24;4.05;;;3.35;;
48789;SDS011;41718;51.980;5.734;2023-07-29T17:43:25;4.57;;;3.40;;
48789;SDS011;41718;51.980;5.734;2023-07-29T17:48:27;3.45;;;3.15;;
48789;SDS011;41718;51.980;5.734;2023-07-29T17:53:29;3.75;;;3.45;;
48789;SDS011;41718;51.980;5.734;2023-07-29T17:58:31;3.03;;;2.60;;
48789;SDS011;41718;51.980;5.734;2023-07-29T18:03:33;4.47;;;3.10;;
48789;SDS011;41718;51.980;5.734;2023-07-29T18:08:34;4.38;;;3.00;;
48789;SDS011;41718;51.980;5.734;2023-07-29T18:13:36;5.53;;;3.88;;
48789;SDS011;41718;51.980;5.734;2023-07-29T18:18:39;3.55;;;3.10;;
48789;SDS011;41718;51.980;5.734;2023-07-29T18:23:41;4.30;;;3.90;;
48789;SDS011;41718;51.980;5.734;2023-07-29T18:28:42;4.15;;;3.75;;
48789;SDS011;41718;51.980;5.734;2023-07-29T18:33:44;4.55;;;4.10;;
48789;SDS011;41718;51.980;5.734;2023-07-29T18:38:45;5.00;;;3.83;;
48789;SDS011;41718;51.980;5.734;2023-07-29T18:43:47;4.30;;;3.90;;
48789;SDS011;41718;51.980;5.734;2023-07-29T18:48:48;5.45;;;4.13;;
48789;SDS011;41718;51.980;5.734;2023-07-29T18:53:50;6.00;;;3.65;;
48789;SDS011;41718;51.980;5.734;2023-07-29T18:58:51;4.32;;;3.55;;
48789;SDS011;41718;51.980;5.734;2023-07-29T19:03:53;4.57;;;2.45;;
48789;SDS011;41718;51.980;5.734;2023-07-29T19:08:55;3.08;;;1.98;;
48789;SDS011;41718;51.980;5.734;2023-07-29T19:13:56;4.90;;;2.10;;
48789;SDS011;41718;51.980;5.734;2023-07-29T19:18:58;9.57;;;2.78;;
48789;SDS011;41718;51.980;5.734;2023-07-29T19:23:59;4.53;;;2.28;;
48789;SDS011;41718;51.980;5.734;2023-07-29T19:29:01;5.93;;;2.20;;
48789;SDS011;41718;51.980;5.734;2023-07-29T19:34:02;8.77;;;2.45;;
48789;SDS011;41718;51.980;5.734;2023-07-29T19:39:04;5.75;;;2.63;;
48789;SDS011;41718;51.980;5.734;2023-07-29T19:44:06;4.70;;;2.75;;
48789;SDS011;41718;51.980;5.734;2023-07-29T19:49:21;7.00;;;2.58;;
48789;SDS011;41718;51.980;5.734;2023-07-29T19:54:23;7.55;;;2.20;;
48789;SDS011;41718;51.980;5.734;2023-07-29T19:59:24;3.97;;;2.03;;
48789;SDS011;41718;51.980;5.734;2023-07-29T20:04:42;5.93;;;2.88;;
48789;SDS011;41718;51.980;5.734;2023-07-29T20:09:50;5.15;;;2.40;;
48789;SDS011;41718;51.980;5.734;2023-07-29T20:14:52;5.38;;;2.15;;
48789;SDS011;41718;51.980;5.734;2023-07-29T20:19:54;7.03;;;2.38;;
48789;SDS011;41718;51.980;5.734;2023-07-29T20:24:56;7.57;;;2.50;;
48789;SDS011;41718;51.980;5.734;2023-07-29T20:29:57;5.72;;;2.05;;
48789;SDS011;41718;51.980;5.734;2023-07-29T20:40:05;6.45;;;2.30;;
48789;SDS011;41718;51.980;5.734;2023-07-29T20:45:07;7.55;;;2.60;;
48789;SDS011;41718;51.980;5.734;2023-07-29T20:50:10;9.73;;;2.83;;
48789;SDS011;41718;51.980;5.734;2023-07-29T20:55:12;5.70;;;2.78;;
48789;SDS011;41718;51.980;5.734;2023-07-29T21:00:13;6.80;;;2.72;;
48789;SDS011;41718;51.980;5.734;2023-07-29T21:05:15;5.03;;;2.22;;
48789;SDS011;41718;51.980;5.734;2023-07-29T21:10:18;5.10;;;2.58;;
48789;SDS011;41718;51.980;5.734;2023-07-29T21:15:20;4.63;;;2.33;;
48789;SDS011;41718;51.980;5.734;2023-07-29T21:20:21;8.93;;;3.05;;
48789;SDS011;41718;51.980;5.734;2023-07-29T21:25:23;4.60;;;2.53;;
48789;SDS011;41718;51.980;5.734;2023-07-29T21:30:25;7.53;;;2.55;;
48789;SDS011;41718;51.980;5.734;2023-07-29T21:35:27;6.20;;;2.75;;
48789;SDS011;41718;51.980;5.734;2023-07-29T21:40:29;6.28;;;3.10;;
48789;SDS011;41718;51.980;5.734;2023-07-29T21:45:30;11.80;;;2.88;;
48789;SDS011;41718;51.980;5.734;2023-07-29T21:50:32;5.05;;;2.58;;
48789;SDS011;41718;51.980;5.734;2023-07-29T21:55:38;5.80;;;2.30;;
48789;SDS011;41718;51.980;5.734;2023-07-29T22:00:41;10.02;;;2.50;;
48789;SDS011;41718;51.980;5.734;2023-07-29T22:05:43;5.82;;;2.17;;
48789;SDS011;41718;51.980;5.734;2023-07-29T22:10:44;6.85;;;2.22;;
48789;SDS011;41718;51.980;5.734;2023-07-29T22:15:46;5.80;;;2.55;;
48789;SDS011;41718;51.980;5.734;2023-07-29T22:20:51;6.85;;;2.45;;
48789;SDS011;41718;51.980;5.734;2023-07-29T22:25:58;10.73;;;2.92;;
48789;SDS011;41718;51.980;5.734;2023-07-29T22:31:01;10.38;;;3.10;;
48789;SDS011;41718;51.980;5.734;2023-07-29T22:36:07;4.72;;;2.55;;
48789;SDS011;41718;51.980;5.734;2023-07-29T22:41:08;9.68;;;2.40;;
48789;SDS011;41718;51.980;5.734;2023-07-29T22:46:10;8.43;;;2.38;;
48789;SDS011;41718;51.980;5.734;2023-07-29T22:51:12;5.85;;;2.60;;
48789;SDS011;41718;51.980;5.734;2023-07-29T22:56:13;8.77;;;3.05;;
48789;SDS011;41718;51.980;5.734;2023-07-29T23:01:15;11.10;;;3.60;;
48789;SDS011;41718;51.980;5.734;2023-07-29T23:06:17;4.88;;;2.90;;
48789;SDS011;41718;51.980;5.734;2023-07-29T23:11:18;5.82;;;2.65;;
48789;SDS011;41718;51.980;5.734;2023-07-29T23:16:22;8.25;;;2.97;;
48789;SDS011;41718;51.980;5.734;2023-07-29T23:21:24;7.78;;;3.75;;
48789;SDS011;41718;51.980;5.734;2023-07-29T23:26:25;8.65;;;3.67;;
48789;SDS011;41718;51.980;5.734;2023-07-29T23:31:27;7.60;;;3.80;;
48789;SDS011;41718;51.980;5.734;2023-07-29T23:36:29;9.43;;;3.92;;
48789;SDS011;41718;51.980;5.734;2023-07-29T23:41:30;9.05;;;3.63;;
48789;SDS011;41718;51.980;5.734;2023-07-29T23:46:32;7.82;;;3.78;;
48789;SDS011;41718;51.980;5.734;2023-07-29T23:51:34;7.47;;;3.20;;
48789;SDS011;41718;51.980;5.734;2023-07-29T23:56:36;7.82;;;3.90;;
